Joplin Regional Airport
KJLN : now visible

Airfield :











YOU CAN JOIN US ON...

 
LOGIN :

Register | Disclaimer

   EN    FR    IT 

 









Legend :    VFR   Marginal VFR   IFR   Intensive IFR   Very Intensive IFR
Visi :
Ceiling :
>= 8 km
>= 3000ft
5 to 8 km
1000 to 3000 ft
1500m to 5 km
500 to 1000 ft
800 to 1500m
200 to 500 ft
< 800m
< 200 ft
Symbols :   Thunderstorms  Fog  Heavy snow  Heavy precipitations  Wind > 20 kt






- Airport Elevation : 981 ft
- IATA code : JLN


KJLN - Joplin Regional

CURRENT METAR :
  • 280436Z AUTO 17005KT 3/4SM BR VV001 13/13 A2989 RMK AO2 T01330133

EXPIRED METARs :
  • 280422Z AUTO 19005KT 1 3/4SM BR FEW002 13/13 A2989 RMK AO2 T01330133
  • 280408Z AUTO 20004KT 1/2SM FG VV002 13/13 A2989 RMK AO2 T01330133
  • 280359Z AUTO 19003KT 3/4SM BR VV002 13/13 A2989 RMK AO2 T01330133
  • 280353Z AUTO 17003KT 1 1/2SM BR FEW002 14/14 A2989 RMK AO2 SLP116 T01440139
  • 280335Z AUTO 14003KT 1SM BR VV002 14/13 A2989 RMK AO2 T01390133
  • 280256Z AUTO 07003KT 3SM BR CLR 14/14 A2989 RMK AO2 T01440139
  • 280240Z AUTO 10003KT 1 3/4SM BR FEW006 14/14 A2988 RMK AO2 T01440144
  • 280228Z AUTO 09003KT 1 1/2SM BR FEW006 14/14 A2988 RMK AO2 T01440144
  • 280208Z AUTO 00000KT 1 3/4SM BR CLR 15/14 A2988 RMK AO2 T01500144
  • 280153Z 00000KT 10SM CLR 16/14 A2987 RMK AO2 SLP109 T01560144

TAF KJLN
Valid from the 28 at 02:00 until the 29 at 00:00 UTC


280217Z 2802/2824 16008KT P6SM VCSH BKN100
TEMPO 2802/2806 2SM BR
FM280700 00000KT 4SM BR BKN011
FM281100 00000KT 1/4SM FG OVC005
FM281500 28005KT P6SM OVC007
PROB30 2816/2818 4SM -SHRA OVC009
FM281800 31008KT P6SM SHRA VCTS OVC022CB
PROB30 2822/2823 4SM TSRA OVC015CB
FM282300 34008KT P6SM OVC035
PROB30 2823/2824 4SM TSRA OVC025CB
KZKC FIR / North America



MET'MAP, your aeronautical weather chart ! - Copyright ORBIFLY December 2007 - Disclaimer

ORBIFLY MET'MAP TEAM :

Programming & Development : Alexandra Zaïnal
Concept & original design : Baudouin d'Aumeries
Assistance for programming : Marc-Olivier Méhu
Technical & hardware support : Manuel Goepfert

Contact : metmap@orbifly.com




SOURCES & CREDITS :

   NOAA       Earth
Advisory